Torreon, Mexico

1:21 PM CST on January 16, 2017 (GMT -0600)
FACULTAD DE INGENIERIA MECANICA Y ELECTRICA | | Change Station

Elev 3661 ft 25.53 °N, 103.33 °W | Updated 34 seconds ago

Mostly Cloudy
Mostly Cloudy
73.0 °F
Feels Like 76 °F
N
5.6
Wind Variable Wind from ESE
Gusts 5.6 mph

Today
High -- | Low -- °F
--% Chance of Precip.
Yesterday
High -- | Low -- °F
Precip. -- in
Pressure 30.01 in
Visibility 10.0 miles
Clouds Mostly Cloudy 10000 ft
Mostly Cloudy 20000 ft
Heat Index 76 °F
Dew Point 33 °F
Humidity 23%
Rainfall 0.00 in
Snow Depth Not available.
7:41 AM 6:26 PM
Waning Gibbous, 79% visible
METAR MMTC 161840Z 00000KT 10SM BKN100 BKN200 21/M02 A3001 RMK 8/072 HZY
Pressure 30.01 in
Visibility 10.0 miles
Clouds Mostly Cloudy 10000 ft
Mostly Cloudy 20000 ft
Heat Index 76 °F
Dew Point 33 °F
Humidity 23%
Rainfall 0.00 in
Snow Depth Not available.
7:41 AM 6:26 PM
Waning Gibbous, 79% visible
METAR MMTC 161840Z 00000KT 10SM BKN100 BKN200 21/M02 A3001 RMK 8/072 HZY

Get Your Daily Forecast Email!

Thanks for signing up!

Be on the lookout for a verification email in your inbox.

You'll start receiving the daily forecast at 8 AM.

×

10-Day Weather Forecast

No radar image for this location.
×

Almanac

Astronomy

Jan. 16, 2017 Rise Set
Actual Time
Civil Twilight
Nautical Twilight
Astronomical Twilight
Moon
Length of Visible Light
Length of Day
Tomorrow will be .
, % of the Moon is Illuminated

Today's Extremes

Country Highs Country Lows

Community

WunderPhotos

Upload Photos

1,962,540 photos uploaded!

WunderBlog® & News

Nearby

Air Quality

  Air Quality AQ Index Pollutant
Not available.

Snow Depth

Station Depth Elevation

Earthquake Activity

City Distance Mag. Time & Date
Minimum magnitude displayed is 2.5.

Coastal Water Temperatures

Place Temperature

Stations

Nearby Weather Stations

Station Location Temp. Windchill Dew Point Humidity Wind Precip. Elev Updated Type